Wetterdaten: Woche 06.11.17 - 12.11.17 (KW45)
Datum Zeit Temp. A. Feuchte A. Luftdruck Regen Wind Richtung Taupunkt Windchill Windben
06.11.2017 00:00 2,2 C 96 % 1015,8 hPa 0,3 l/m 0,9 km/h (0 Bft) O 1,6 C 2,2 C 3,3 km/h (1 Bft)
06.11.2017 01:00 2,2 C 96 % 1016,3 hPa 1,3 l/m 0,2 km/h (0 Bft) O 1,6 C 2,2 C 1,3 km/h (1 Bft)
06.11.2017 02:00 1,6 C 96 % 1016,8 hPa 0,8 l/m 0,4 km/h (0 Bft) O 1,0 C 1,6 C 2,4 km/h (1 Bft)
06.11.2017 03:00 1,3 C 96 % 1017,1 hPa 1,0 l/m 0,4 km/h (0 Bft) O 0,7 C 1,3 C 2,1 km/h (1 Bft)
06.11.2017 04:00 1,3 C 97 % 1017,5 hPa 0,8 l/m 0,0 km/h (0 Bft) O 0,8 C 1,3 C 0,0 km/h (0 Bft)
06.11.2017 05:00 1,6 C 97 % 1018,2 hPa 0,3 l/m 0,0 km/h (0 Bft) O 1,1 C 1,6 C 0,0 km/h (0 Bft)
06.11.2017 06:00 1,9 C 97 % 1018,6 hPa 0,0 l/m 0,0 km/h (0 Bft) O 1,5 C 1,9 C 0,0 km/h (0 Bft)
06.11.2017 07:00 2,1 C 97 % 1019,2 hPa 0,0 l/m 0,2 km/h (0 Bft) O 1,7 C 2,1 C 1,7 km/h (1 Bft)
06.11.2017 08:00 2,4 C 97 % 1019,9 hPa 0,0 l/m 0,8 km/h (0 Bft) N-NO 1,9 C 2,4 C 3,6 km/h (1 Bft)
06.11.2017 09:00 2,7 C 96 % 1020,7 hPa 0,0 l/m 1,0 km/h (0 Bft) NW 2,1 C 2,7 C 4,3 km/h (1 Bft)
06.11.2017 10:00 2,8 C 95 % 1021,3 hPa 0,0 l/m 1,8 km/h (1 Bft) W 2,0 C 2,8 C 6,7 km/h (2 Bft)
06.11.2017 11:00 3,1 C 93 % 1021,7 hPa 0,0 l/m 2,2 km/h (1 Bft) NW 2,1 C 3,1 C 5,6 km/h (2 Bft)
06.11.2017 12:00 3,1 C 93 % 1021,7 hPa 0,0 l/m 1,6 km/h (1 Bft) W-NW 2,1 C 3,1 C 5,0 km/h (1 Bft)
06.11.2017 13:00 3,6 C 92 % 1021,8 hPa 0,0 l/m 2,0 km/h (1 Bft) NW 2,5 C 3,6 C 5,7 km/h (2 Bft)
06.11.2017 14:00 3,6 C 91 % 1021,9 hPa 0,0 l/m 2,4 km/h (1 Bft) NW 2,3 C 3,6 C 7,6 km/h (2 Bft)
06.11.2017 15:00 3,5 C 92 % 1022,1 hPa 0,0 l/m 2,0 km/h (1 Bft) NW 2,3 C 3,5 C 5,7 km/h (2 Bft)
06.11.2017 16:00 3,4 C 91 % 1022,5 hPa 0,0 l/m 1,6 km/h (1 Bft) W-NW 2,1 C 3,4 C 5,8 km/h (2 Bft)
06.11.2017 17:00 3,1 C 91 % 1022,8 hPa 0,0 l/m 1,8 km/h (1 Bft) NW 1,8 C 3,1 C 6,4 km/h (2 Bft)
06.11.2017 18:00 3,0 C 93 % 1023,2 hPa 0,0 l/m 1,7 km/h (1 Bft) W-NW 1,9 C 3,0 C 6,1 km/h (2 Bft)
06.11.2017 19:00 3,0 C 93 % 1023,4 hPa 0,0 l/m 2,3 km/h (1 Bft) NW 1,9 C 3,0 C 8,0 km/h (2 Bft)
06.11.2017 20:00 2,9 C 91 % 1023,3 hPa 0,0 l/m 2,5 km/h (1 Bft) W-NW 1,5 C 2,9 C 8,7 km/h (2 Bft)
06.11.2017 21:00 2,8 C 91 % 1023,2 hPa 0,0 l/m 2,3 km/h (1 Bft) NW 1,5 C 2,8 C 6,6 km/h (2 Bft)
06.11.2017 22:00 2,8 C 90 % 1023,1 hPa 0,0 l/m 2,4 km/h (1 Bft) W 1,3 C 2,8 C 7,2 km/h (2 Bft)
06.11.2017 23:00 2,8 C 90 % 1022,6 hPa 0,0 l/m 2,6 km/h (1 Bft) NW 1,3 C 2,8 C 7,1 km/h (2 Bft)
07.11.2017 00:00 2,8 C 90 % 1022,5 hPa 0,0 l/m 2,7 km/h (1 Bft) NW 1,4 C 2,8 C 8,4 km/h (2 Bft)
07.11.2017 01:00 2,8 C 92 % 1022,0 hPa 0,0 l/m 2,9 km/h (1 Bft) NW 1,6 C 2,8 C 10,3 km/h (2 Bft)
07.11.2017 02:00 2,8 C 93 % 1021,3 hPa 0,0 l/m 2,4 km/h (1 Bft) W-NW 1,8 C 2,8 C 7,5 km/h (2 Bft)
07.11.2017 03:00 2,9 C 93 % 1020,8 hPa 0,0 l/m 2,8 km/h (1 Bft) W-NW 1,9 C 2,9 C 10,9 km/h (2 Bft)
07.11.2017 04:00 3,0 C 93 % 1020,2 hPa 0,0 l/m 4,1 km/h (1 Bft) SW 2,0 C 3,0 C 13,4 km/h (3 Bft)
07.11.2017 05:00 3,1 C 94 % 1019,8 hPa 0,0 l/m 4,4 km/h (1 Bft) W 2,2 C 3,1 C 13,8 km/h (3 Bft)
07.11.2017 06:00 3,0 C 95 % 1019,6 hPa 0,0 l/m 3,3 km/h (1 Bft) W 2,3 C 3,0 C 10,3 km/h (2 Bft)
07.11.2017 07:00 3,1 C 96 % 1019,4 hPa 0,0 l/m 2,6 km/h (1 Bft) W-NW 2,5 C 3,1 C 9,8 km/h (2 Bft)
07.11.2017 08:00 3,2 C 96 % 1019,3 hPa 0,0 l/m 3,2 km/h (1 Bft) NW 2,6 C 3,2 C 10,1 km/h (2 Bft)
07.11.2017 09:00 3,4 C 96 % 1018,9 hPa 0,0 l/m 3,2 km/h (1 Bft) W-NW 2,8 C 3,4 C 10,1 km/h (2 Bft)
07.11.2017 10:00 3,7 C 96 % 1018,5 hPa 0,0 l/m 3,4 km/h (1 Bft) NW 3,1 C 3,7 C 10,2 km/h (2 Bft)
07.11.2017 11:00 4,2 C 95 % 1017,6 hPa 0,0 l/m 3,3 km/h (1 Bft) W-NW 3,5 C 4,2 C 8,8 km/h (2 Bft)
07.11.2017 12:00 4,4 C 95 % 1017,1 hPa 0,0 l/m 3,7 km/h (1 Bft) W 3,7 C 4,4 C 9,2 km/h (2 Bft)
07.11.2017 13:00 4,6 C 96 % 1016,4 hPa 0,0 l/m 2,5 km/h (1 Bft) W 4,0 C 4,6 C 8,0 km/h (2 Bft)
07.11.2017 14:00 4,7 C 96 % 1016,1 hPa 0,0 l/m 1,9 km/h (1 Bft) W 4,1 C 4,7 C 7,4 km/h (2 Bft)
07.11.2017 15:00 4,7 C 96 % 1016,0 hPa 0,0 l/m 1,3 km/h (1 Bft) W-NW 4,2 C 4,7 C 5,5 km/h (2 Bft)
07.11.2017 16:00 4,8 C 96 % 1015,9 hPa 0,3 l/m 0,9 km/h (0 Bft) W-NW 4,2 C 4,8 C 4,3 km/h (1 Bft)
07.11.2017 17:00 4,8 C 96 % 1016,0 hPa 0,5 l/m 0,5 km/h (0 Bft) W-SW 4,3 C 4,8 C 2,8 km/h (1 Bft)
07.11.2017 18:00 4,7 C 97 % 1016,1 hPa 0,3 l/m 0,5 km/h (0 Bft) S-SW 4,3 C 4,7 C 2,7 km/h (1 Bft)
07.11.2017 19:00 4,7 C 97 % 1015,8 hPa 0,0 l/m 0,0 km/h (0 Bft) S-SW 4,2 C 4,7 C 0,7 km/h (0 Bft)
07.11.2017 20:00 4,7 C 97 % 1015,5 hPa 0,0 l/m 0,1 km/h (0 Bft) S-SW 4,3 C 4,7 C 0,8 km/h (0 Bft)
07.11.2017 21:00 4,7 C 97 % 1015,3 hPa 0,5 l/m 0,0 km/h (0 Bft) S-SW 4,3 C 4,7 C 0,0 km/h (0 Bft)
07.11.2017 22:00 4,7 C 97 % 1015,3 hPa 0,3 l/m 0,1 km/h (0 Bft) S-SW 4,3 C 4,7 C 0,7 km/h (0 Bft)
07.11.2017 23:00 4,6 C 97 % 1014,9 hPa 0,3 l/m 0,1 km/h (0 Bft) N 4,2 C 4,6 C 0,7 km/h (0 Bft)
08.11.2017 00:00 4,6 C 97 % 1014,9 hPa 0,8 l/m 0,3 km/h (0 Bft) SO 4,1 C 4,6 C 1,5 km/h (1 Bft)
08.11.2017 01:00 4,2 C 97 % 1014,8 hPa 0,3 l/m 1,4 km/h (1 Bft) O 3,8 C 4,2 C 4,4 km/h (1 Bft)
08.11.2017 02:00 3,9 C 97 % 1014,6 hPa 0,0 l/m 1,6 km/h (1 Bft) O 3,5 C 3,9 C 5,1 km/h (1 Bft)
08.11.2017 03:00 3,8 C 97 % 1014,7 hPa 0,8 l/m 2,3 km/h (1 Bft) O-NO 3,3 C 3,8 C 6,3 km/h (2 Bft)
08.11.2017 04:00 3,7 C 97 % 1014,7 hPa 0,5 l/m 1,7 km/h (1 Bft) O-NO 3,3 C 3,7 C 6,1 km/h (2 Bft)
08.11.2017 05:00 3,6 C 97 % 1014,8 hPa 0,5 l/m 1,7 km/h (1 Bft) O-NO 3,2 C 3,6 C 5,3 km/h (1 Bft)
08.11.2017 06:00 3,5 C 97 % 1015,0 hPa 0,5 l/m 2,0 km/h (1 Bft) O 3,1 C 3,5 C 6,1 km/h (2 Bft)
08.11.2017 07:00 3,3 C 96 % 1015,5 hPa 0,3 l/m 2,0 km/h (1 Bft) O-NO 2,8 C 3,3 C 5,7 km/h (2 Bft)
08.11.2017 08:00 3,3 C 96 % 1016,0 hPa 0,5 l/m 2,3 km/h (1 Bft) NO 2,7 C 3,3 C 6,7 km/h (2 Bft)
08.11.2017 09:00 3,0 C 96 % 1016,5 hPa 0,8 l/m 2,5 km/h (1 Bft) O-NO 2,5 C 3,0 C 6,8 km/h (2 Bft)
08.11.2017 10:00 3,0 C 96 % 1016,9 hPa 0,3 l/m 1,8 km/h (1 Bft) NO 2,5 C 3,0 C 5,3 km/h (1 Bft)
08.11.2017 11:00 3,7 C 96 % 1017,0 hPa 0,0 l/m 1,5 km/h (1 Bft) O 3,1 C 3,7 C 4,2 km/h (1 Bft)
08.11.2017 12:00 4,0 C 95 % 1017,0 hPa 0,0 l/m 2,0 km/h (1 Bft) O-NO 3,3 C 4,0 C 5,4 km/h (2 Bft)
08.11.2017 13:00 3,9 C 95 % 1017,3 hPa 0,0 l/m 1,9 km/h (1 Bft) O 3,2 C 3,9 C 6,1 km/h (2 Bft)
08.11.2017 14:00 4,0 C 96 % 1017,7 hPa 0,0 l/m 1,0 km/h (0 Bft) O 3,3 C 4,0 C 3,9 km/h (1 Bft)
08.11.2017 15:00 3,9 C 95 % 1018,1 hPa 0,0 l/m 1,6 km/h (1 Bft) O 3,3 C 3,9 C 4,7 km/h (1 Bft)
08.11.2017 16:00 3,8 C 96 % 1018,4 hPa 0,0 l/m 0,3 km/h (0 Bft) O 3,2 C 3,8 C 2,1 km/h (1 Bft)
08.11.2017 17:00 3,8 C 96 % 1018,8 hPa 0,0 l/m 0,4 km/h (0 Bft) O 3,2 C 3,8 C 2,5 km/h (1 Bft)
08.11.2017 18:00 3,7 C 96 % 1019,1 hPa 0,0 l/m 0,6 km/h (0 Bft) O-NO 3,2 C 3,7 C 2,8 km/h (1 Bft)
08.11.2017 19:00 3,7 C 96 % 1019,4 hPa 0,0 l/m 0,5 km/h (0 Bft) O-NO 3,1 C 3,7 C 2,5 km/h (1 Bft)
08.11.2017 20:00 3,7 C 96 % 1019,8 hPa 0,0 l/m 0,3 km/h (0 Bft) O-NO 3,1 C 3,7 C 2,0 km/h (1 Bft)
08.11.2017 21:00 3,6 C 96 % 1020,1 hPa 0,0 l/m 0,1 km/h (0 Bft) O-NO 3,0 C 3,6 C 1,1 km/h (0 Bft)
08.11.2017 22:00 3,7 C 96 % 1020,4 hPa 0,0 l/m 0,1 km/h (0 Bft) O-NO 3,1 C 3,7 C 0,8 km/h (0 Bft)
08.11.2017 23:00 3,7 C 96 % 1020,6 hPa 0,0 l/m 0,1 km/h (0 Bft) O-NO 3,1 C 3,7 C 0,7 km/h (0 Bft)
09.11.2017 00:00 3,7 C 96 % 1020,8 hPa 0,0 l/m 0,0 km/h (0 Bft) O-NO 3,1 C 3,7 C 0,0 km/h (0 Bft)
09.11.2017 01:00 3,6 C 97 % 1020,8 hPa 0,0 l/m 0,0 km/h (0 Bft) O-NO 3,1 C 3,6 C 0,0 km/h (0 Bft)
09.11.2017 02:00 3,4 C 97 % 1020,7 hPa 0,0 l/m 0,1 km/h (0 Bft) O-NO 3,0 C 3,4 C 0,4 km/h (0 Bft)
09.11.2017 03:00 3,4 C 97 % 1020,7 hPa 0,0 l/m 0,0 km/h (0 Bft) O-NO 3,0 C 3,4 C 0,4 km/h (0 Bft)
09.11.2017 04:00 3,3 C 97 % 1020,8 hPa 0,0 l/m 0,0 km/h (0 Bft) O-NO 2,9 C 3,3 C 0,0 km/h (0 Bft)
09.11.2017 05:00 3,2 C 97 % 1021,1 hPa 0,0 l/m 0,0 km/h (0 Bft) O-NO 2,8 C 3,2 C 0,0 km/h (0 Bft)
09.11.2017 06:00 3,2 C 97 % 1021,5 hPa 0,0 l/m 0,2 km/h (0 Bft) O-NO 2,7 C 3,2 C 1,5 km/h (1 Bft)
09.11.2017 07:00 3,2 C 97 % 1022,2 hPa 0,0 l/m 0,0 km/h (0 Bft) O-NO 2,8 C 3,2 C 0,8 km/h (0 Bft)
09.11.2017 08:00 3,3 C 97 % 1022,9 hPa 0,3 l/m 0,5 km/h (0 Bft) O-NO 2,9 C 3,3 C 2,3 km/h (1 Bft)
09.11.2017 09:00 3,6 C 97 % 1023,3 hPa 0,0 l/m 1,1 km/h (0 Bft) O-NO 3,1 C 3,6 C 4,0 km/h (1 Bft)
09.11.2017 10:00 4,4 C 95 % 1023,6 hPa 0,0 l/m 1,4 km/h (1 Bft) O-NO 3,6 C 4,4 C 5,1 km/h (1 Bft)
09.11.2017 11:00 5,4 C 93 % 1023,6 hPa 0,0 l/m 1,4 km/h (1 Bft) O 4,3 C 5,4 C 3,8 km/h (1 Bft)
09.11.2017 12:00 6,5 C 89 % 1023,4 hPa 0,0 l/m 2,5 km/h (1 Bft) O-NO 4,8 C 6,5 C 6,3 km/h (2 Bft)
09.11.2017 13:00 6,2 C 88 % 1023,2 hPa 0,0 l/m 3,3 km/h (1 Bft) O 4,4 C 6,2 C 7,1 km/h (2 Bft)
09.11.2017 14:00 5,8 C 90 % 1023,2 hPa 0,0 l/m 2,7 km/h (1 Bft) O 4,3 C 5,8 C 7,4 km/h (2 Bft)
09.11.2017 15:00 5,5 C 91 % 1023,5 hPa 0,0 l/m 1,1 km/h (1 Bft) O 4,1 C 5,5 C 4,4 km/h (1 Bft)
09.11.2017 16:00 5,1 C 93 % 1023,9 hPa 0,0 l/m 0,9 km/h (0 Bft) O 4,0 C 5,1 C 3,5 km/h (1 Bft)
09.11.2017 17:00 4,7 C 93 % 1024,4 hPa 0,0 l/m 0,6 km/h (0 Bft) O 3,8 C 4,7 C 2,7 km/h (1 Bft)
09.11.2017 18:00 4,5 C 94 % 1024,8 hPa 0,0 l/m 0,9 km/h (0 Bft) O-NO 3,7 C 4,5 C 3,6 km/h (1 Bft)
09.11.2017 19:00 4,4 C 95 % 1025,1 hPa 0,0 l/m 1,3 km/h (1 Bft) O 3,6 C 4,4 C 5,1 km/h (1 Bft)
09.11.2017 20:00 4,3 C 94 % 1025,2 hPa 0,0 l/m 0,2 km/h (0 Bft) O 3,4 C 4,3 C 1,5 km/h (1 Bft)
09.11.2017 21:00 4,2 C 94 % 1025,3 hPa 0,0 l/m 0,7 km/h (0 Bft) O-NO 3,3 C 4,2 C 3,3 km/h (1 Bft)
09.11.2017 22:00 4,1 C 94 % 1025,2 hPa 0,0 l/m 0,8 km/h (0 Bft) O-NO 3,2 C 4,1 C 4,0 km/h (1 Bft)
09.11.2017 23:00 4,1 C 95 % 1025,2 hPa 0,0 l/m 1,6 km/h (1 Bft) O 3,4 C 4,1 C 4,0 km/h (1 Bft)
10.11.2017 00:00 4,1 C 95 % 1024,9 hPa 0,0 l/m 1,5 km/h (1 Bft) O 3,4 C 4,1 C 4,8 km/h (1 Bft)
10.11.2017 01:00 3,9 C 95 % 1024,9 hPa 0,0 l/m 1,2 km/h (1 Bft) O 3,1 C 3,9 C 4,9 km/h (1 Bft)
10.11.2017 02:00 3,9 C 95 % 1024,3 hPa 0,0 l/m 1,7 km/h (1 Bft) O 3,2 C 3,9 C 5,6 km/h (2 Bft)
10.11.2017 03:00 3,8 C 94 % 1023,5 hPa 0,0 l/m 3,7 km/h (1 Bft) NO 3,0 C 3,8 C 10,2 km/h (2 Bft)
10.11.2017 04:00 3,8 C 93 % 1023,6 hPa 0,0 l/m 1,3 km/h (1 Bft) NO 2,7 C 3,8 C 5,8 km/h (2 Bft)
10.11.2017 05:00 3,7 C 94 % 1022,9 hPa 0,0 l/m 2,1 km/h (1 Bft) NO 2,8 C 3,7 C 6,0 km/h (2 Bft)
10.11.2017 06:00 3,8 C 92 % 1022,8 hPa 0,0 l/m 3,3 km/h (1 Bft) O-NO 2,6 C 3,8 C 10,9 km/h (2 Bft)
10.11.2017 07:00 3,5 C 91 % 1022,8 hPa 0,0 l/m 4,6 km/h (1 Bft) NO 2,2 C 3,3 C 13,9 km/h (3 Bft)
10.11.2017 08:00 2,8 C 91 % 1022,7 hPa 0,0 l/m 5,3 km/h (1 Bft) NO 1,5 C 2,7 C 14,4 km/h (3 Bft)
10.11.2017 09:00 2,9 C 90 % 1022,6 hPa 0,0 l/m 4,9 km/h (1 Bft) NO 1,5 C 2,9 C 14,4 km/h (3 Bft)
10.11.2017 10:00 3,2 C 89 % 1021,9 hPa 0,0 l/m 5,2 km/h (1 Bft) NO 1,6 C 3,0 C 15,6 km/h (3 Bft)
10.11.2017 11:00 3,5 C 88 % 1021,2 hPa 0,0 l/m 6,2 km/h (2 Bft) O-NO 1,7 C 3,0 C 13,8 km/h (3 Bft)
10.11.2017 12:00 3,6 C 89 % 1020,6 hPa 0,3 l/m 6,7 km/h (2 Bft) NO 2,1 C 3,0 C 14,5 km/h (3 Bft)
10.11.2017 13:00 3,5 C 94 % 1019,7 hPa 1,0 l/m 6,1 km/h (2 Bft) O-NO 2,6 C 3,0 C 15,0 km/h (3 Bft)
10.11.2017 14:00 3,6 C 95 % 1019,0 hPa 0,5 l/m 5,6 km/h (2 Bft) NO 2,8 C 3,3 C 14,8 km/h (3 Bft)
10.11.2017 15:00 3,9 C 94 % 1018,6 hPa 0,0 l/m 5,9 km/h (2 Bft) O 3,0 C 3,7 C 15,2 km/h (3 Bft)
10.11.2017 16:00 3,9 C 95 % 1018,3 hPa 0,5 l/m 5,9 km/h (2 Bft) O 3,2 C 3,6 C 16,0 km/h (3 Bft)
10.11.2017 17:00 4,1 C 95 % 1018,3 hPa 0,3 l/m 7,0 km/h (2 Bft) O-NO 3,3 C 3,3 C 16,4 km/h (3 Bft)
10.11.2017 18:00 4,2 C 96 % 1018,6 hPa 0,8 l/m 6,6 km/h (2 Bft) O-NO 3,5 C 3,7 C 16,6 km/h (3 Bft)
10.11.2017 19:00 4,3 C 96 % 1018,8 hPa 1,0 l/m 5,9 km/h (2 Bft) NO 3,7 C 3,8 C 14,2 km/h (3 Bft)
10.11.2017 20:00 4,6 C 96 % 1018,9 hPa 1,0 l/m 4,7 km/h (1 Bft) O-NO 4,0 C 4,6 C 14,1 km/h (3 Bft)
10.11.2017 21:00 4,8 C 96 % 1018,6 hPa 1,0 l/m 5,3 km/h (1 Bft) O-NO 4,2 C 4,7 C 14,0 km/h (3 Bft)
10.11.2017 22:00 4,9 C 96 % 1018,6 hPa 1,5 l/m 3,1 km/h (1 Bft) O 4,3 C 4,9 C 7,6 km/h (2 Bft)
10.11.2017 23:00 4,9 C 96 % 1018,7 hPa 0,5 l/m 1,9 km/h (1 Bft) O 4,2 C 4,9 C 5,5 km/h (2 Bft)
11.11.2017 00:00 4,8 C 95 % 1018,8 hPa 0,0 l/m 2,2 km/h (1 Bft) O-NO 4,0 C 4,8 C 6,1 km/h (2 Bft)
11.11.2017 01:00 4,5 C 94 % 1018,9 hPa 0,0 l/m 1,6 km/h (1 Bft) O-NO 3,6 C 4,5 C 6,2 km/h (2 Bft)
11.11.2017 02:00 4,2 C 94 % 1018,9 hPa 0,0 l/m 1,0 km/h (0 Bft) O 3,3 C 4,2 C 4,1 km/h (1 Bft)
11.11.2017 03:00 3,9 C 93 % 1018,9 hPa 0,0 l/m 0,9 km/h (0 Bft) O 2,9 C 3,9 C 5,1 km/h (1 Bft)
11.11.2017 04:00 3,5 C 93 % 1018,7 hPa 0,0 l/m 1,7 km/h (1 Bft) O-NO 2,4 C 3,5 C 6,8 km/h (2 Bft)
11.11.2017 05:00 3,3 C 93 % 1018,3 hPa 0,0 l/m 2,4 km/h (1 Bft) O-NO 2,2 C 3,3 C 6,4 km/h (2 Bft)
11.11.2017 06:00 3,4 C 93 % 1018,0 hPa 0,0 l/m 3,0 km/h (1 Bft) NO 2,3 C 3,4 C 9,0 km/h (2 Bft)
11.11.2017 07:00 3,5 C 94 % 1017,7 hPa 0,0 l/m 3,9 km/h (1 Bft) NO 2,6 C 3,4 C 11,0 km/h (2 Bft)
11.11.2017 08:00 3,8 C 95 % 1017,2 hPa 0,5 l/m 6,0 km/h (2 Bft) NO 3,1 C 3,5 C 15,6 km/h (3 Bft)
11.11.2017 09:00 4,2 C 94 % 1016,3 hPa 0,5 l/m 7,8 km/h (2 Bft) N-NO 3,3 C 2,9 C 16,9 km/h (3 Bft)
11.11.2017 10:00 4,6 C 94 % 1015,4 hPa 1,0 l/m 7,8 km/h (2 Bft) O-NO 3,7 C 3,3 C 19,7 km/h (3 Bft)
11.11.2017 11:00 4,5 C 95 % 1014,3 hPa 2,5 l/m 10,1 km/h (2 Bft) O-NO 3,7 C 1,5 C 20,7 km/h (4 Bft)
11.11.2017 12:00 4,4 C 95 % 1013,5 hPa 2,8 l/m 9,6 km/h (2 Bft) NO 3,6 C 1,7 C 20,6 km/h (4 Bft)
11.11.2017 13:00 4,5 C 95 % 1012,4 hPa 2,8 l/m 11,1 km/h (2 Bft) O-NO 3,7 C 0,8 C 25,6 km/h (4 Bft)
11.11.2017 14:00 5,0 C 95 % 1011,3 hPa 1,5 l/m 10,8 km/h (2 Bft) NO 4,3 C 1,5 C 23,6 km/h (4 Bft)
11.11.2017 15:00 5,6 C 95 % 1010,7 hPa 2,0 l/m 9,9 km/h (2 Bft) O-NO 4,8 C 2,8 C 23,2 km/h (4 Bft)
11.11.2017 16:00 6,0 C 96 % 1010,1 hPa 2,0 l/m 8,8 km/h (2 Bft) O-NO 5,3 C 4,0 C 21,6 km/h (4 Bft)
11.11.2017 17:00 6,4 C 96 % 1009,7 hPa 2,3 l/m 9,0 km/h (2 Bft) O-NO 5,8 C 4,4 C 20,5 km/h (4 Bft)
11.11.2017 18:00 6,7 C 96 % 1009,5 hPa 2,3 l/m 7,3 km/h (2 Bft) O-NO 6,1 C 5,9 C 16,9 km/h (3 Bft)
11.11.2017 19:00 7,0 C 96 % 1009,4 hPa 2,0 l/m 6,2 km/h (2 Bft) O-NO 6,4 C 6,8 C 15,2 km/h (3 Bft)
11.11.2017 20:00 7,2 C 97 % 1009,2 hPa 1,8 l/m 6,5 km/h (2 Bft) O-NO 6,7 C 6,9 C 16,1 km/h (3 Bft)
11.11.2017 21:00 7,4 C 96 % 1009,3 hPa 1,3 l/m 6,8 km/h (2 Bft) O-NO 6,9 C 6,9 C 16,1 km/h (3 Bft)
11.11.2017 22:00 7,6 C 97 % 1009,5 hPa 1,5 l/m 5,7 km/h (2 Bft) O-NO 7,1 C 7,5 C 14,9 km/h (3 Bft)
11.11.2017 23:00 7,7 C 97 % 1009,4 hPa 1,3 l/m 3,4 km/h (1 Bft) O-NO 7,3 C 7,7 C 8,3 km/h (2 Bft)
12.11.2017 00:00 7,8 C 97 % 1009,2 hPa 1,0 l/m 2,5 km/h (1 Bft) O-NO 7,3 C 7,8 C 6,1 km/h (2 Bft)
12.11.2017 01:00 7,8 C 97 % 1008,7 hPa 1,0 l/m 2,1 km/h (1 Bft) O-NO 7,4 C 7,8 C 6,4 km/h (2 Bft)
12.11.2017 02:00 7,2 C 96 % 1008,6 hPa 2,8 l/m 1,0 km/h (0 Bft) O-NO 6,6 C 7,2 C 4,1 km/h (1 Bft)
12.11.2017 03:00 4,8 C 96 % 1008,6 hPa 4,1 l/m 1,3 km/h (1 Bft) SW 4,2 C 4,8 C 4,5 km/h (1 Bft)
12.11.2017 04:00 4,3 C 97 % 1008,4 hPa 3,0 l/m 0,4 km/h (0 Bft) W-SW 3,9 C 4,3 C 2,0 km/h (1 Bft)
12.11.2017 05:00 4,2 C 97 % 1007,8 hPa 2,8 l/m 0,0 km/h (0 Bft) S-SW 3,8 C 4,2 C 0,5 km/h (0 Bft)
12.11.2017 06:00 4,2 C 97 % 1006,8 hPa 1,5 l/m 0,0 km/h (0 Bft) O-NO 3,7 C 4,2 C 0,5 km/h (0 Bft)
12.11.2017 07:00 4,2 C 97 % 1006,1 hPa 1,8 l/m 0,0 km/h (0 Bft) O-NO 3,7 C 4,2 C 0,3 km/h (0 Bft)
12.11.2017 08:00 4,2 C 97 % 1004,7 hPa 2,3 l/m 0,1 km/h (0 Bft) NO 3,8 C 4,2 C 0,8 km/h (0 Bft)
12.11.2017 09:00 4,6 C 98 % 1003,1 hPa 2,8 l/m 0,3 km/h (0 Bft) S 4,3 C 4,6 C 2,0 km/h (1 Bft)
12.11.2017 10:00 7,0 C 98 % 1001,3 hPa 3,6 l/m 7,2 km/h (2 Bft) O-NO 6,7 C 5,8 C 19,0 km/h (3 Bft)
12.11.2017 11:00 8,0 C 94 % 999,0 hPa 2,3 l/m 12,7 km/h (3 Bft) O-NO 7,1 C 4,0 C 25,6 km/h (4 Bft)
12.11.2017 12:00 7,8 C 94 % 997,8 hPa 1,5 l/m 12,6 km/h (3 Bft) O-NO 6,9 C 3,7 C 25,9 km/h (4 Bft)
12.11.2017 13:00 8,2 C 93 % 995,8 hPa 2,3 l/m 12,7 km/h (3 Bft) O 7,2 C 4,1 C 29,2 km/h (5 Bft)
12.11.2017 14:00 3,2 C 93 % 997,1 hPa 9,4 l/m 5,1 km/h (1 Bft) O-NO 2,1 C 2,8 C 14,9 km/h (3 Bft)
12.11.2017 15:00 3,1 C 97 % 997,1 hPa 2,0 l/m 4,7 km/h (1 Bft) O 2,7 C 3,1 C 12,4 km/h (2 Bft)
12.11.2017 16:00 3,1 C 95 % 998,8 hPa 0,3 l/m 4,6 km/h (1 Bft) NO 2,4 C 3,1 C 15,6 km/h (3 Bft)
12.11.2017 17:00 1,7 C 94 % 1000,6 hPa 0,3 l/m 3,7 km/h (1 Bft) O 0,9 C 1,7 C 11,6 km/h (2 Bft)
12.11.2017 18:00 1,2 C 95 % 1002,5 hPa 0,3 l/m 3,5 km/h (1 Bft) O-NO 0,6 C 1,2 C 11,8 km/h (2 Bft)
12.11.2017 19:00 1,2 C 94 % 1004,3 hPa 0,0 l/m 1,9 km/h (1 Bft) O-NO 0,4 C 1,2 C 7,2 km/h (2 Bft)
12.11.2017 20:00 0,8 C 95 % 1005,5 hPa 0,0 l/m 2,3 km/h (1 Bft) O-NO 0,2 C 0,8 C 8,2 km/h (2 Bft)
12.11.2017 21:00 0,8 C 94 % 1006,3 hPa 0,3 l/m 3,2 km/h (1 Bft) O -0,0 C 0,8 C 11,1 km/h (2 Bft)
12.11.2017 22:00 0,7 C 95 % 1006,7 hPa 0,0 l/m 1,1 km/h (0 Bft) O -0,1 C 0,7 C 5,6 km/h (2 Bft)
12.11.2017 23:00 0,4 C 96 % 1006,7 hPa 0,0 l/m 1,5 km/h (1 Bft) O -0,2 C 0,4 C 5,1 km/h (1 Bft)
Min-Datum _ 12.11.17 12.11.17 12.11.17 - 12.11.17 - 12.11.17 11.11.17 12.11.17
_ Min-Zeit 23:10 14:00 13:35 - 23:58 - 23:00 13:05 09:00
Minimum _ 0,4 C 83 % 995,0 hPa - 0,0 km/h (0 Bft) - -0,2 C -1,0 C 0,0 km/h (0 Bft)
Max-Datum _ 12.11.17 12.11.17 09.11.17 12.11.17 12.11.17 - 12.11.17 12.11.17 12.11.17
_ Max-Zeit 13:30 10:20 21:20 14:00 11:52 - 10:40 10:45 11:20
Maximum _ 8,3 C 99 % 1025,5 hPa 9,4 l/m 20,9 km/h
O-NO (4 Bft)
- 7,6 C 8,0 C 40,2 km/h
O-NO (6 Bft)
Durchschnitt _ 4,0 C 95 % 1016,8 hPa #93,5 l/m 2,8 km/h (1 Bft) O-NO 3,2 C 3,7 C 7,8 km/h (2 Bft)